sensor_id;sensor_type;location;lat;lon;timestamp;pressure;altitude;pressure_sealevel;temperature;humidity
15314;BME280;7757;52.626;4.746;2023-05-08T00:01:17;101935.81;;;19.92;65.36
15314;BME280;7757;52.626;4.746;2023-05-08T00:04:04;101937.84;;;19.96;65.08
15314;BME280;7757;52.626;4.746;2023-05-08T00:06:50;101938.91;;;19.95;65.15
15314;BME280;7757;52.626;4.746;2023-05-08T00:09:37;101943.03;;;19.73;65.92
15314;BME280;7757;52.626;4.746;2023-05-08T00:12:23;101941.91;;;19.56;66.84
15314;BME280;7757;52.626;4.746;2023-05-08T00:15:16;101944.22;;;19.84;65.28
15314;BME280;7757;52.626;4.746;2023-05-08T00:18:01;101945.41;;;19.63;66.20
15314;BME280;7757;52.626;4.746;2023-05-08T00:20:48;101946.75;;;19.79;65.64
15314;BME280;7757;52.626;4.746;2023-05-08T00:23:33;101954.38;;;19.95;65.03
15314;BME280;7757;52.626;4.746;2023-05-08T00:26:19;101955.31;;;19.82;65.17
15314;BME280;7757;52.626;4.746;2023-05-08T00:29:04;101955.41;;;19.94;65.16
15314;BME280;7757;52.626;4.746;2023-05-08T00:31:50;101952.16;;;19.85;65.23
15314;BME280;7757;52.626;4.746;2023-05-08T00:34:35;101959.75;;;19.70;65.94
15314;BME280;7757;52.626;4.746;2023-05-08T00:37:22;101946.00;;;19.72;65.44
15314;BME280;7757;52.626;4.746;2023-05-08T00:40:16;101950.09;;;19.81;65.09
15314;BME280;7757;52.626;4.746;2023-05-08T00:43:02;101953.97;;;19.91;64.66
15314;BME280;7757;52.626;4.746;2023-05-08T00:46:01;101958.44;;;19.79;65.18
15314;BME280;7757;52.626;4.746;2023-05-08T00:48:46;101951.16;;;19.80;64.96
15314;BME280;7757;52.626;4.746;2023-05-08T00:51:33;101932.97;;;19.80;65.39
15314;BME280;7757;52.626;4.746;2023-05-08T00:54:23;101945.16;;;19.96;64.55
15314;BME280;7757;52.626;4.746;2023-05-08T00:57:08;101944.00;;;19.85;64.57
15314;BME280;7757;52.626;4.746;2023-05-08T00:59:54;101944.59;;;19.87;65.22
15314;BME280;7757;52.626;4.746;2023-05-08T01:02:40;101945.16;;;19.96;64.45
15314;BME280;7757;52.626;4.746;2023-05-08T01:05:26;101949.16;;;19.93;64.98
15314;BME280;7757;52.626;4.746;2023-05-08T01:08:11;101940.84;;;19.88;64.26
15314;BME280;7757;52.626;4.746;2023-05-08T01:11:07;101950.47;;;19.84;64.54
15314;BME280;7757;52.626;4.746;2023-05-08T01:14:02;101948.81;;;19.83;64.58
15314;BME280;7757;52.626;4.746;2023-05-08T01:16:57;101944.47;;;19.76;64.77
15314;BME280;7757;52.626;4.746;2023-05-08T01:19:57;101945.91;;;19.47;65.61
15314;BME280;7757;52.626;4.746;2023-05-08T01:26:41;101956.47;;;19.62;65.25
15314;BME280;7757;52.626;4.746;2023-05-08T01:29:46;101949.44;;;19.54;65.04
15314;BME280;7757;52.626;4.746;2023-05-08T01:32:39;101938.03;;;19.39;65.92
15314;BME280;7757;52.626;4.746;2023-05-08T01:35:29;101946.34;;;19.44;65.69
15314;BME280;7757;52.626;4.746;2023-05-08T01:38:21;101937.50;;;19.11;66.24
15314;BME280;7757;52.626;4.746;2023-05-08T01:41:13;101935.34;;;19.26;64.84
15314;BME280;7757;52.626;4.746;2023-05-08T01:44:09;101942.97;;;19.04;66.31
15314;BME280;7757;52.626;4.746;2023-05-08T01:46:57;101947.63;;;19.41;65.41
15314;BME280;7757;52.626;4.746;2023-05-08T01:49:48;101945.50;;;19.37;65.19
15314;BME280;7757;52.626;4.746;2023-05-08T01:52:42;101952.22;;;19.34;65.39
15314;BME280;7757;52.626;4.746;2023-05-08T01:55:30;101950.69;;;19.52;64.66
15314;BME280;7757;52.626;4.746;2023-05-08T01:58:18;101954.72;;;19.42;64.75
15314;BME280;7757;52.626;4.746;2023-05-08T02:01:04;101956.06;;;19.58;64.42
15314;BME280;7757;52.626;4.746;2023-05-08T02:03:51;101956.31;;;19.57;64.07
15314;BME280;7757;52.626;4.746;2023-05-08T02:06:39;101962.84;;;18.72;66.65
15314;BME280;7757;52.626;4.746;2023-05-08T02:09:25;101961.91;;;19.11;65.99
15314;BME280;7757;52.626;4.746;2023-05-08T02:12:13;101967.81;;;19.01;66.21
15314;BME280;7757;52.626;4.746;2023-05-08T02:15:00;101961.97;;;18.98;65.96
15314;BME280;7757;52.626;4.746;2023-05-08T02:17:47;101955.59;;;19.30;65.20
15314;BME280;7757;52.626;4.746;2023-05-08T02:20:33;101956.91;;;19.08;65.23
15314;BME280;7757;52.626;4.746;2023-05-08T02:23:22;101962.84;;;18.78;66.37
15314;BME280;7757;52.626;4.746;2023-05-08T02:26:10;101955.84;;;19.15;65.71
15314;BME280;7757;52.626;4.746;2023-05-08T02:28:57;101957.72;;;19.15;65.14
15314;BME280;7757;52.626;4.746;2023-05-08T02:31:46;101968.28;;;18.72;67.04
15314;BME280;7757;52.626;4.746;2023-05-08T02:34:35;101958.31;;;18.66;66.88
15314;BME280;7757;52.626;4.746;2023-05-08T02:37:22;101969.34;;;18.71;66.17
15314;BME280;7757;52.626;4.746;2023-05-08T02:40:10;101954.56;;;19.24;65.15
15314;BME280;7757;52.626;4.746;2023-05-08T02:42:56;101956.75;;;18.89;66.09
15314;BME280;7757;52.626;4.746;2023-05-08T02:45:47;101953.41;;;19.01;65.68
15314;BME280;7757;52.626;4.746;2023-05-08T02:48:35;101950.53;;;18.82;66.19
15314;BME280;7757;52.626;4.746;2023-05-08T02:51:29;101938.44;;;18.91;65.91
15314;BME280;7757;52.626;4.746;2023-05-08T02:54:22;101939.69;;;18.89;66.03
15314;BME280;7757;52.626;4.746;2023-05-08T02:57:21;101939.69;;;18.82;65.97
15314;BME280;7757;52.626;4.746;2023-05-08T03:00:13;101945.59;;;18.40;67.48
15314;BME280;7757;52.626;4.746;2023-05-08T03:03:04;101945.06;;;18.95;65.72
15314;BME280;7757;52.626;4.746;2023-05-08T03:05:54;101942.63;;;18.81;65.63
15314;BME280;7757;52.626;4.746;2023-05-08T03:08:44;101944.31;;;18.42;67.72
15314;BME280;7757;52.626;4.746;2023-05-08T03:11:43;101936.91;;;19.02;65.92
15314;BME280;7757;52.626;4.746;2023-05-08T03:14:37;101939.97;;;18.61;66.31
15314;BME280;7757;52.626;4.746;2023-05-08T03:17:25;101930.69;;;18.95;65.90
15314;BME280;7757;52.626;4.746;2023-05-08T03:20:15;101941.03;;;18.54;66.35
15314;BME280;7757;52.626;4.746;2023-05-08T03:23:07;101942.50;;;19.14;65.40
15314;BME280;7757;52.626;4.746;2023-05-08T03:25:54;101942.91;;;18.01;68.98
15314;BME280;7757;52.626;4.746;2023-05-08T03:28:41;101943.53;;;18.03;69.13
15314;BME280;7757;52.626;4.746;2023-05-08T03:31:31;101938.09;;;18.22;68.03
15314;BME280;7757;52.626;4.746;2023-05-08T03:34:18;101938.72;;;17.98;68.71
15314;BME280;7757;52.626;4.746;2023-05-08T03:37:05;101939.34;;;17.87;69.12
15314;BME280;7757;52.626;4.746;2023-05-08T03:39:50;101939.84;;;17.43;71.32
15314;BME280;7757;52.626;4.746;2023-05-08T03:42:42;101941.22;;;18.39;67.93
15314;BME280;7757;52.626;4.746;2023-05-08T03:45:29;101939.28;;;18.79;66.49
15314;BME280;7757;52.626;4.746;2023-05-08T03:48:17;101940.38;;;18.65;66.60
15314;BME280;7757;52.626;4.746;2023-05-08T03:51:05;101942.66;;;18.48;67.07
15314;BME280;7757;52.626;4.746;2023-05-08T03:53:52;101947.66;;;17.59;68.87
15314;BME280;7757;52.626;4.746;2023-05-08T03:56:41;101939.97;;;18.55;66.68
15314;BME280;7757;52.626;4.746;2023-05-08T03:59:37;101936.41;;;18.67;66.05
15314;BME280;7757;52.626;4.746;2023-05-08T04:02:39;101944.56;;;18.28;67.44
15314;BME280;7757;52.626;4.746;2023-05-08T04:05:37;101941.88;;;18.15;68.10
15314;BME280;7757;52.626;4.746;2023-05-08T04:08:28;101937.91;;;17.91;69.18
15314;BME280;7757;52.626;4.746;2023-05-08T04:11:25;101934.13;;;17.92;68.44
15314;BME280;7757;52.626;4.746;2023-05-08T04:14:18;101927.97;;;17.31;71.28
15314;BME280;7757;52.626;4.746;2023-05-08T04:17:06;101929.16;;;18.02;68.91
15314;BME280;7757;52.626;4.746;2023-05-08T04:20:00;101945.63;;;17.94;68.95
15314;BME280;7757;52.626;4.746;2023-05-08T04:22:49;101940.00;;;18.15;68.15
15314;BME280;7757;52.626;4.746;2023-05-08T04:25:37;101935.72;;;17.47;70.05
15314;BME280;7757;52.626;4.746;2023-05-08T04:28:24;101944.69;;;17.48;70.14
15314;BME280;7757;52.626;4.746;2023-05-08T04:31:13;101935.81;;;18.39;67.59
15314;BME280;7757;52.626;4.746;2023-05-08T04:33:59;101951.84;;;18.40;67.51
15314;BME280;7757;52.626;4.746;2023-05-08T04:36:44;101953.50;;;18.68;66.57
15314;BME280;7757;52.626;4.746;2023-05-08T04:39:35;101951.34;;;18.89;65.34
15314;BME280;7757;52.626;4.746;2023-05-08T04:42:21;101955.72;;;18.97;64.92
15314;BME280;7757;52.626;4.746;2023-05-08T04:45:07;101965.56;;;18.78;65.79
15314;BME280;7757;52.626;4.746;2023-05-08T04:47:53;101966.63;;;18.71;66.15
15314;BME280;7757;52.626;4.746;2023-05-08T04:50:38;101966.53;;;19.04;65.02
15314;BME280;7757;52.626;4.746;2023-05-08T04:53:24;101966.97;;;18.94;65.57
15314;BME280;7757;52.626;4.746;2023-05-08T04:56:13;101969.59;;;19.20;64.41
15314;BME280;7757;52.626;4.746;2023-05-08T04:58:58;101968.50;;;18.83;65.57
15314;BME280;7757;52.626;4.746;2023-05-08T05:01:45;101968.09;;;18.40;67.11
15314;BME280;7757;52.626;4.746;2023-05-08T05:04:31;101970.97;;;18.78;66.15
15314;BME280;7757;52.626;4.746;2023-05-08T05:07:16;101973.94;;;18.70;66.04
15314;BME280;7757;52.626;4.746;2023-05-08T05:10:02;101968.19;;;19.05;64.93
15314;BME280;7757;52.626;4.746;2023-05-08T05:12:56;101968.09;;;18.14;67.98
15314;BME280;7757;52.626;4.746;2023-05-08T05:15:42;101983.09;;;18.43;67.56
15314;BME280;7757;52.626;4.746;2023-05-08T05:18:27;101978.44;;;17.71;70.55
15314;BME280;7757;52.626;4.746;2023-05-08T05:21:13;101982.25;;;18.16;68.65
15314;BME280;7757;52.626;4.746;2023-05-08T05:23:58;101979.78;;;18.61;67.17
15314;BME280;7757;52.626;4.746;2023-05-08T05:26:48;101979.06;;;18.98;65.53
15314;BME280;7757;52.626;4.746;2023-05-08T05:29:44;101988.25;;;18.97;65.32
15314;BME280;7757;52.626;4.746;2023-05-08T05:32:36;101982.41;;;19.00;65.31
15314;BME280;7757;52.626;4.746;2023-05-08T05:35:24;101990.28;;;19.15;64.92
15314;BME280;7757;52.626;4.746;2023-05-08T05:38:13;101981.72;;;19.11;64.83
15314;BME280;7757;52.626;4.746;2023-05-08T05:40:58;101986.81;;;18.81;66.74
15314;BME280;7757;52.626;4.746;2023-05-08T05:43:44;101987.63;;;18.95;66.01
15314;BME280;7757;52.626;4.746;2023-05-08T05:46:33;101984.66;;;19.10;65.73
15314;BME280;7757;52.626;4.746;2023-05-08T05:49:18;101987.03;;;18.80;67.04
15314;BME280;7757;52.626;4.746;2023-05-08T05:52:04;101986.75;;;19.08;65.96
15314;BME280;7757;52.626;4.746;2023-05-08T05:54:49;101988.00;;;19.05;65.80
15314;BME280;7757;52.626;4.746;2023-05-08T05:57:35;101998.59;;;19.13;65.49
15314;BME280;7757;52.626;4.746;2023-05-08T06:00:21;101998.50;;;18.88;67.13
15314;BME280;7757;52.626;4.746;2023-05-08T06:03:10;101999.28;;;18.95;66.63
15314;BME280;7757;52.626;4.746;2023-05-08T06:05:59;101998.91;;;18.92;66.72
15314;BME280;7757;52.626;4.746;2023-05-08T06:08:47;102006.09;;;19.24;66.22
15314;BME280;7757;52.626;4.746;2023-05-08T06:11:33;102005.88;;;19.19;66.29
15314;BME280;7757;52.626;4.746;2023-05-08T06:14:21;102015.47;;;19.28;65.74
15314;BME280;7757;52.626;4.746;2023-05-08T06:17:06;102012.16;;;19.13;66.23
15314;BME280;7757;52.626;4.746;2023-05-08T06:19:55;102015.13;;;19.05;67.28
15314;BME280;7757;52.626;4.746;2023-05-08T06:22:46;102001.56;;;19.05;66.94
15314;BME280;7757;52.626;4.746;2023-05-08T06:25:32;102009.75;;;18.85;68.31
15314;BME280;7757;52.626;4.746;2023-05-08T06:28:19;102009.13;;;19.54;65.89
15314;BME280;7757;52.626;4.746;2023-05-08T06:31:05;102012.91;;;19.84;64.42
15314;BME280;7757;52.626;4.746;2023-05-08T06:33:50;102008.97;;;19.87;64.47
15314;BME280;7757;52.626;4.746;2023-05-08T06:36:37;102013.00;;;20.02;64.18
15314;BME280;7757;52.626;4.746;2023-05-08T06:39:23;102006.88;;;20.14;63.58
15314;BME280;7757;52.626;4.746;2023-05-08T06:42:08;102001.84;;;20.17;63.63
15314;BME280;7757;52.626;4.746;2023-05-08T06:44:56;101993.63;;;20.24;63.05
15314;BME280;7757;52.626;4.746;2023-05-08T06:47:45;102010.75;;;20.31;62.66
15314;BME280;7757;52.626;4.746;2023-05-08T06:50:32;102000.53;;;20.26;62.98
15314;BME280;7757;52.626;4.746;2023-05-08T06:53:19;101999.00;;;20.05;63.44
15314;BME280;7757;52.626;4.746;2023-05-08T06:56:05;101997.41;;;20.23;63.39
15314;BME280;7757;52.626;4.746;2023-05-08T06:58:51;102000.09;;;20.29;62.74
15314;BME280;7757;52.626;4.746;2023-05-08T07:01:37;101996.78;;;20.27;63.11
15314;BME280;7757;52.626;4.746;2023-05-08T07:04:25;102002.03;;;20.47;61.98
15314;BME280;7757;52.626;4.746;2023-05-08T07:07:13;102000.69;;;20.56;62.41
15314;BME280;7757;52.626;4.746;2023-05-08T07:10:08;102003.88;;;20.53;62.49
15314;BME280;7757;52.626;4.746;2023-05-08T07:12:54;101999.88;;;20.55;62.36
15314;BME280;7757;52.626;4.746;2023-05-08T07:15:42;101997.78;;;20.57;61.94
15314;BME280;7757;52.626;4.746;2023-05-08T07:18:27;101987.78;;;20.51;62.32
15314;BME280;7757;52.626;4.746;2023-05-08T07:21:20;101996.50;;;20.60;62.13
15314;BME280;7757;52.626;4.746;2023-05-08T07:24:11;101998.88;;;20.50;62.25
15314;BME280;7757;52.626;4.746;2023-05-08T07:27:01;101997.00;;;20.50;62.53
15314;BME280;7757;52.626;4.746;2023-05-08T07:29:46;102003.03;;;20.52;62.26
15314;BME280;7757;52.626;4.746;2023-05-08T07:32:31;101996.50;;;20.35;63.11
15314;BME280;7757;52.626;4.746;2023-05-08T07:35:17;101990.84;;;20.37;63.24
15314;BME280;7757;52.626;4.746;2023-05-08T07:38:02;101996.50;;;20.60;62.32
15314;BME280;7757;52.626;4.746;2023-05-08T07:40:47;101985.19;;;20.38;63.12
15314;BME280;7757;52.626;4.746;2023-05-08T07:43:35;101988.41;;;20.53;62.62
15314;BME280;7757;52.626;4.746;2023-05-08T07:46:21;101992.25;;;20.64;62.28
15314;BME280;7757;52.626;4.746;2023-05-08T07:49:06;101986.81;;;20.64;62.16
15314;BME280;7757;52.626;4.746;2023-05-08T07:51:52;101997.34;;;20.36;63.25
15314;BME280;7757;52.626;4.746;2023-05-08T07:54:37;101988.44;;;20.47;63.07
15314;BME280;7757;52.626;4.746;2023-05-08T07:57:22;101999.47;;;20.52;63.50
15314;BME280;7757;52.626;4.746;2023-05-08T08:00:11;101987.06;;;20.81;63.58
15314;BME280;7757;52.626;4.746;2023-05-08T08:02:57;101990.88;;;20.98;63.02
15314;BME280;7757;52.626;4.746;2023-05-08T08:05:42;101994.47;;;20.92;63.31
15314;BME280;7757;52.626;4.746;2023-05-08T08:08:30;102001.22;;;20.89;63.75
15314;BME280;7757;52.626;4.746;2023-05-08T08:11:15;101998.63;;;20.94;63.45
15314;BME280;7757;52.626;4.746;2023-05-08T08:14:01;101998.03;;;20.92;63.43
15314;BME280;7757;52.626;4.746;2023-05-08T08:16:48;102010.13;;;20.78;63.15
15314;BME280;7757;52.626;4.746;2023-05-08T08:19:33;102008.69;;;20.94;62.73
15314;BME280;7757;52.626;4.746;2023-05-08T08:22:18;102007.16;;;20.80;62.43
15314;BME280;7757;52.626;4.746;2023-05-08T08:25:04;102006.94;;;20.99;62.27
15314;BME280;7757;52.626;4.746;2023-05-08T08:27:50;102006.19;;;20.92;62.61
15314;BME280;7757;52.626;4.746;2023-05-08T08:30:35;102005.09;;;21.18;60.92
15314;BME280;7757;52.626;4.746;2023-05-08T08:33:22;102000.34;;;21.13;61.05
15314;BME280;7757;52.626;4.746;2023-05-08T08:36:13;102015.16;;;21.18;61.50
15314;BME280;7757;52.626;4.746;2023-05-08T08:39:05;102012.56;;;21.04;62.09
15314;BME280;7757;52.626;4.746;2023-05-08T08:41:50;102015.19;;;20.93;62.66
15314;BME280;7757;52.626;4.746;2023-05-08T08:44:36;101998.31;;;21.02;61.73
15314;BME280;7757;52.626;4.746;2023-05-08T08:47:24;102004.84;;;21.38;60.89
15314;BME280;7757;52.626;4.746;2023-05-08T08:50:13;101997.53;;;21.20;61.58
15314;BME280;7757;52.626;4.746;2023-05-08T08:53:06;101998.88;;;20.93;60.96
15314;BME280;7757;52.626;4.746;2023-05-08T08:55:54;101988.97;;;20.98;60.74
15314;BME280;7757;52.626;4.746;2023-05-08T08:58:47;101992.00;;;21.27;60.74
15314;BME280;7757;52.626;4.746;2023-05-08T09:01:35;102005.03;;;21.25;60.53
15314;BME280;7757;52.626;4.746;2023-05-08T09:04:22;101997.59;;;20.95;60.96
15314;BME280;7757;52.626;4.746;2023-05-08T09:07:16;102000.84;;;21.04;61.66
15314;BME280;7757;52.626;4.746;2023-05-08T09:10:05;101995.00;;;21.00;61.50
15314;BME280;7757;52.626;4.746;2023-05-08T09:12:50;102007.13;;;21.04;61.17
15314;BME280;7757;52.626;4.746;2023-05-08T09:15:36;102006.66;;;21.44;60.04
15314;BME280;7757;52.626;4.746;2023-05-08T09:18:21;102013.06;;;21.79;59.31
15314;BME280;7757;52.626;4.746;2023-05-08T09:21:13;102001.78;;;21.94;58.41
15314;BME280;7757;52.626;4.746;2023-05-08T09:24:01;102015.97;;;21.84;58.57
15314;BME280;7757;52.626;4.746;2023-05-08T09:26:47;102008.88;;;21.65;59.05
15314;BME280;7757;52.626;4.746;2023-05-08T09:29:32;102009.47;;;21.67;58.96
15314;BME280;7757;52.626;4.746;2023-05-08T09:32:20;102005.38;;;21.76;60.17
15314;BME280;7757;52.626;4.746;2023-05-08T09:35:08;101997.81;;;21.48;60.33
15314;BME280;7757;52.626;4.746;2023-05-08T09:37:54;101998.69;;;20.88;61.27
15314;BME280;7757;52.626;4.746;2023-05-08T09:40:41;102001.50;;;20.81;61.42
15314;BME280;7757;52.626;4.746;2023-05-08T09:43:26;101998.56;;;20.83;61.63
15314;BME280;7757;52.626;4.746;2023-05-08T09:46:21;101996.84;;;21.25;60.90
15314;BME280;7757;52.626;4.746;2023-05-08T09:49:16;101999.06;;;21.16;60.89
15314;BME280;7757;52.626;4.746;2023-05-08T09:52:01;101992.34;;;20.94;61.44
15314;BME280;7757;52.626;4.746;2023-05-08T09:54:47;101996.28;;;20.80;61.03
15314;BME280;7757;52.626;4.746;2023-05-08T09:57:35;102008.53;;;20.89;61.22
15314;BME280;7757;52.626;4.746;2023-05-08T10:00:22;102015.09;;;20.99;61.02
15314;BME280;7757;52.626;4.746;2023-05-08T10:03:08;102005.56;;;20.90;62.00
15314;BME280;7757;52.626;4.746;2023-05-08T10:05:53;102012.31;;;20.45;62.51
15314;BME280;7757;52.626;4.746;2023-05-08T10:08:39;102023.44;;;20.62;62.38
15314;BME280;7757;52.626;4.746;2023-05-08T10:11:25;102010.03;;;20.85;62.06
15314;BME280;7757;52.626;4.746;2023-05-08T10:14:11;102015.31;;;20.80;61.75
15314;BME280;7757;52.626;4.746;2023-05-08T10:16:58;102017.75;;;20.88;61.25
15314;BME280;7757;52.626;4.746;2023-05-08T10:19:48;102010.94;;;20.97;61.38
15314;BME280;7757;52.626;4.746;2023-05-08T10:22:42;102016.00;;;20.93;60.88
15314;BME280;7757;52.626;4.746;2023-05-08T10:25:31;102022.34;;;20.87;61.24
15314;BME280;7757;52.626;4.746;2023-05-08T10:28:21;102012.25;;;20.94;60.50
15314;BME280;7757;52.626;4.746;2023-05-08T10:31:11;102019.09;;;20.97;60.51
15314;BME280;7757;52.626;4.746;2023-05-08T10:34:00;102015.78;;;20.77;61.35
15314;BME280;7757;52.626;4.746;2023-05-08T10:36:46;102012.66;;;20.73;61.21
15314;BME280;7757;52.626;4.746;2023-05-08T10:39:32;101999.47;;;20.95;60.39
15314;BME280;7757;52.626;4.746;2023-05-08T10:42:18;102004.84;;;21.01;60.60
15314;BME280;7757;52.626;4.746;2023-05-08T10:45:06;102016.53;;;20.84;61.00
15314;BME280;7757;52.626;4.746;2023-05-08T10:48:00;102015.56;;;20.78;61.11
15314;BME280;7757;52.626;4.746;2023-05-08T10:50:54;102015.09;;;20.99;60.43
15314;BME280;7757;52.626;4.746;2023-05-08T10:53:48;102013.28;;;20.75;61.26
15314;BME280;7757;52.626;4.746;2023-05-08T10:56:36;102013.53;;;20.92;61.06
15314;BME280;7757;52.626;4.746;2023-05-08T10:59:22;102018.69;;;21.54;60.71
15314;BME280;7757;52.626;4.746;2023-05-08T11:02:07;102010.97;;;21.81;59.44
15314;BME280;7757;52.626;4.746;2023-05-08T11:04:54;102013.59;;;21.88;59.84
15314;BME280;7757;52.626;4.746;2023-05-08T11:07:54;102016.66;;;22.09;59.58
15314;BME280;7757;52.626;4.746;2023-05-08T11:10:43;102009.38;;;21.44;59.80
15314;BME280;7757;52.626;4.746;2023-05-08T11:13:34;102004.84;;;21.38;59.29
15314;BME280;7757;52.626;4.746;2023-05-08T11:19:59;101991.03;;;21.39;60.67
15314;BME280;7757;52.626;4.746;2023-05-08T11:22:46;101990.72;;;21.29;59.42
15314;BME280;7757;52.626;4.746;2023-05-08T11:25:47;101994.31;;;21.59;58.84
15314;BME280;7757;52.626;4.746;2023-05-08T11:28:37;101974.31;;;21.65;58.78
15314;BME280;7757;52.626;4.746;2023-05-08T11:31:23;101978.75;;;22.19;58.28
15314;BME280;7757;52.626;4.746;2023-05-08T11:34:46;101986.25;;;21.64;59.17
15314;BME280;7757;52.626;4.746;2023-05-08T11:37:34;101979.81;;;22.07;58.86
15314;BME280;7757;52.626;4.746;2023-05-08T11:40:45;101977.88;;;21.96;58.13
15314;BME280;7757;52.626;4.746;2023-05-08T11:47:09;101980.31;;;21.86;58.03
15314;BME280;7757;52.626;4.746;2023-05-08T11:50:01;101978.13;;;21.17;60.25
15314;BME280;7757;52.626;4.746;2023-05-08T11:52:51;101982.53;;;21.47;59.19
15314;BME280;7757;52.626;4.746;2023-05-08T11:55:36;101977.41;;;21.39;60.37
15314;BME280;7757;52.626;4.746;2023-05-08T11:58:22;101982.66;;;21.52;59.66
15314;BME280;7757;52.626;4.746;2023-05-08T12:01:09;101985.75;;;21.56;59.78
15314;BME280;7757;52.626;4.746;2023-05-08T12:03:59;101981.69;;;21.47;60.01
15314;BME280;7757;52.626;4.746;2023-05-08T12:06:44;101982.72;;;21.34;60.08
15314;BME280;7757;52.626;4.746;2023-05-08T12:09:35;101963.31;;;21.60;60.11
15314;BME280;7757;52.626;4.746;2023-05-08T12:12:21;101977.34;;;22.17;57.90
15314;BME280;7757;52.626;4.746;2023-05-08T12:15:07;101975.69;;;22.28;58.81
15314;BME280;7757;52.626;4.746;2023-05-08T12:17:59;101976.06;;;22.31;58.16
15314;BME280;7757;52.626;4.746;2023-05-08T12:20:45;101968.78;;;21.72;58.42
15314;BME280;7757;52.626;4.746;2023-05-08T12:23:38;101969.09;;;20.98;60.97
15314;BME280;7757;52.626;4.746;2023-05-08T12:26:25;101967.22;;;20.80;60.84
15314;BME280;7757;52.626;4.746;2023-05-08T12:29:13;101967.06;;;21.11;60.46
15314;BME280;7757;52.626;4.746;2023-05-08T12:32:02;101965.63;;;20.91;61.00
15314;BME280;7757;52.626;4.746;2023-05-08T12:34:48;101958.44;;;20.96;60.77
15314;BME280;7757;52.626;4.746;2023-05-08T12:37:33;101959.44;;;20.84;61.36
15314;BME280;7757;52.626;4.746;2023-05-08T12:40:24;101956.88;;;21.25;59.96
15314;BME280;7757;52.626;4.746;2023-05-08T12:43:11;101961.63;;;20.75;61.46
15314;BME280;7757;52.626;4.746;2023-05-08T12:45:56;101954.97;;;21.07;60.42
15314;BME280;7757;52.626;4.746;2023-05-08T12:48:45;101951.50;;;20.82;61.43
15314;BME280;7757;52.626;4.746;2023-05-08T12:51:32;101950.94;;;20.55;61.55
15314;BME280;7757;52.626;4.746;2023-05-08T12:54:17;101952.00;;;20.73;61.25
15314;BME280;7757;52.626;4.746;2023-05-08T12:57:13;101948.38;;;20.97;61.12
15314;BME280;7757;52.626;4.746;2023-05-08T13:00:03;101948.19;;;20.98;60.83
15314;BME280;7757;52.626;4.746;2023-05-08T13:02:55;101952.41;;;20.76;60.56
15314;BME280;7757;52.626;4.746;2023-05-08T13:05:41;101942.44;;;20.88;61.12
15314;BME280;7757;52.626;4.746;2023-05-08T13:08:31;101947.72;;;21.01;60.37
15314;BME280;7757;52.626;4.746;2023-05-08T13:11:27;101935.75;;;21.02;60.26
15314;BME280;7757;52.626;4.746;2023-05-08T13:14:13;101948.38;;;20.42;62.52
15314;BME280;7757;52.626;4.746;2023-05-08T13:17:00;101943.00;;;20.36;62.32
15314;BME280;7757;52.626;4.746;2023-05-08T13:19:45;101948.38;;;20.11;64.06
15314;BME280;7757;52.626;4.746;2023-05-08T13:22:31;101947.84;;;20.02;64.18
15314;BME280;7757;52.626;4.746;2023-05-08T13:25:16;101944.16;;;19.90;64.52
15314;BME280;7757;52.626;4.746;2023-05-08T13:28:02;101941.91;;;20.12;63.90
15314;BME280;7757;52.626;4.746;2023-05-08T13:30:48;101944.28;;;20.33;63.50
15314;BME280;7757;52.626;4.746;2023-05-08T13:33:35;101947.09;;;20.14;64.17
15314;BME280;7757;52.626;4.746;2023-05-08T13:36:22;101953.91;;;20.04;64.76
15314;BME280;7757;52.626;4.746;2023-05-08T13:39:07;101944.84;;;20.11;64.48
15314;BME280;7757;52.626;4.746;2023-05-08T13:41:52;101950.53;;;20.02;64.67
15314;BME280;7757;52.626;4.746;2023-05-08T13:44:41;101949.38;;;19.92;64.04
15314;BME280;7757;52.626;4.746;2023-05-08T13:47:29;101955.66;;;19.92;64.31
15314;BME280;7757;52.626;4.746;2023-05-08T13:50:19;101940.59;;;19.90;63.88
15314;BME280;7757;52.626;4.746;2023-05-08T13:53:08;101937.66;;;19.98;63.51
15314;BME280;7757;52.626;4.746;2023-05-08T13:55:53;101945.16;;;19.96;63.48
15314;BME280;7757;52.626;4.746;2023-05-08T13:58:41;101951.31;;;19.85;63.50
15314;BME280;7757;52.626;4.746;2023-05-08T14:01:27;101956.19;;;19.76;63.94
15314;BME280;7757;52.626;4.746;2023-05-08T14:04:12;101953.41;;;19.83;63.60
15314;BME280;7757;52.626;4.746;2023-05-08T14:07:02;101953.94;;;19.67;63.79
15314;BME280;7757;52.626;4.746;2023-05-08T14:09:47;101961.41;;;19.33;64.71
15314;BME280;7757;52.626;4.746;2023-05-08T14:12:33;101945.38;;;19.25;65.03
15314;BME280;7757;52.626;4.746;2023-05-08T14:15:19;101943.66;;;19.31;64.96
15314;BME280;7757;52.626;4.746;2023-05-08T14:18:04;101947.91;;;19.65;63.44
15314;BME280;7757;52.626;4.746;2023-05-08T14:20:49;101952.34;;;19.53;63.98
15314;BME280;7757;52.626;4.746;2023-05-08T14:23:36;101952.84;;;19.74;63.20
15314;BME280;7757;52.626;4.746;2023-05-08T14:26:25;101954.66;;;19.49;63.19
15314;BME280;7757;52.626;4.746;2023-05-08T14:29:10;101961.47;;;19.65;63.16
15314;BME280;7757;52.626;4.746;2023-05-08T14:31:57;101956.59;;;19.42;63.38
15314;BME280;7757;52.626;4.746;2023-05-08T14:34:43;101953.88;;;19.35;63.95
15314;BME280;7757;52.626;4.746;2023-05-08T14:37:28;101943.63;;;19.75;62.85
15314;BME280;7757;52.626;4.746;2023-05-08T14:40:15;101938.91;;;19.95;62.02
15314;BME280;7757;52.626;4.746;2023-05-08T14:43:00;101944.78;;;19.92;62.62
15314;BME280;7757;52.626;4.746;2023-05-08T14:45:46;101942.09;;;19.92;62.44
15314;BME280;7757;52.626;4.746;2023-05-08T14:48:31;101943.47;;;19.70;62.74
15314;BME280;7757;52.626;4.746;2023-05-08T14:51:17;101946.00;;;19.96;62.16
15314;BME280;7757;52.626;4.746;2023-05-08T14:54:03;101934.75;;;19.93;62.69
15314;BME280;7757;52.626;4.746;2023-05-08T14:56:50;101938.44;;;19.74;62.22
15314;BME280;7757;52.626;4.746;2023-05-08T14:59:35;101926.69;;;19.48;63.43
15314;BME280;7757;52.626;4.746;2023-05-08T15:02:21;101927.59;;;19.74;62.84